createdAt,value
2023-02-13T06:11:40.433Z,101211.34
2023-02-13T06:14:08.367Z,101215.67
2023-02-13T06:16:37.764Z,101212.89
2023-02-13T06:19:05.012Z,101213.84
2023-02-13T06:21:33.328Z,101211.75
2023-02-13T06:24:00.875Z,101204.27
2023-02-13T06:26:27.449Z,101200.29
2023-02-13T06:28:54.469Z,101189.20
2023-02-13T06:31:22.630Z,101187.54
2023-02-13T06:33:54.111Z,101182.83
2023-02-13T06:36:24.324Z,101173.40
2023-02-13T06:38:52.081Z,101169.20
2023-02-13T06:41:19.695Z,101166.77
2023-02-13T06:43:47.411Z,101169.94
2023-02-13T06:46:14.485Z,101168.11
2023-02-13T06:48:44.067Z,101167.22
2023-02-13T06:51:11.468Z,101166.23
2023-02-13T06:53:44.138Z,101166.89
2023-02-13T06:56:11.759Z,101164.27
2023-02-13T06:58:39.626Z,101162.59
2023-02-13T07:01:07.838Z,101156.72
2023-02-13T07:03:36.651Z,101156.79
2023-02-13T07:06:04.382Z,101154.42
2023-02-13T07:08:35.232Z,101146.94
2023-02-13T07:11:05.736Z,101147.54
2023-02-13T07:13:33.576Z,101146.86
2023-02-13T07:16:01.227Z,101147.41
2023-02-13T07:18:30.137Z,101144.39
2023-02-13T07:21:00.578Z,101142.77
2023-02-13T07:23:30.897Z,101137.40
2023-02-13T07:26:00.058Z,101135.85
2023-02-13T07:28:28.150Z,101129.73
2023-02-13T07:30:56.549Z,101120.23
2023-02-13T07:33:26.229Z,101116.31
2023-02-13T07:35:53.901Z,101117.27
2023-02-13T07:38:24.731Z,101116.50
2023-02-13T07:40:54.390Z,101116.73
2023-02-13T07:43:21.983Z,101117.66
2023-02-13T07:45:49.739Z,101117.73
2023-02-13T07:48:18.957Z,101123.91
2023-02-13T07:50:50.608Z,101120.31
2023-02-13T07:53:19.872Z,101115.71
2023-02-13T07:55:52.015Z,101117.17
2023-02-13T07:58:20.033Z,101115.20
2023-02-13T08:01:02.058Z,101106.40
2023-02-13T08:03:37.159Z,101107.45
2023-02-13T08:06:22.761Z,101096.02
2023-02-13T08:09:39.745Z,101102.75
2023-02-13T08:12:08.828Z,101103.25
2023-02-13T08:14:35.772Z,101105.59
2023-02-13T08:17:02.679Z,101106.35
2023-02-13T08:19:30.869Z,101105.70
2023-02-13T08:22:02.648Z,101107.82
2023-02-13T08:24:32.404Z,101099.95
2023-02-13T08:27:15.721Z,101099.61
2023-02-13T08:33:34.079Z,101099.22
2023-02-13T08:36:22.278Z,101095.20
2023-02-13T08:39:06.186Z,101092.36
2023-02-13T08:44:53.460Z,101090.48
2023-02-13T08:47:42.098Z,101081.24
2023-02-13T08:50:32.288Z,101073.73
2023-02-13T08:53:15.616Z,101070.35
2023-02-13T08:56:05.698Z,101075.87
2023-02-13T08:59:13.910Z,101075.23
2023-02-13T09:01:54.624Z,101078.87
2023-02-13T09:04:32.986Z,101079.30
2023-02-13T09:07:27.386Z,101075.38
2023-02-13T09:10:06.114Z,101084.23
2023-02-13T09:12:38.486Z,101088.43
2023-02-13T09:15:22.227Z,101087.39
2023-02-13T09:18:16.736Z,101086.89
2023-02-13T09:21:07.983Z,101079.15
2023-02-13T09:23:58.204Z,101073.92
2023-02-13T09:26:31.203Z,101069.44
2023-02-13T09:29:00.776Z,101068.35
2023-02-13T09:31:29.775Z,101060.98
2023-02-13T09:34:00.814Z,101053.36
2023-02-13T09:36:38.761Z,101052.36
2023-02-13T09:39:11.852Z,101053.96
2023-02-13T09:41:41.743Z,101049.71
2023-02-13T09:44:38.600Z,101045.76
2023-02-13T09:47:38.417Z,101034.28
2023-02-13T09:57:22.366Z,101027.45
2023-02-13T10:00:14.561Z,101025.46
2023-02-13T10:03:03.368Z,101015.35
2023-02-13T10:05:44.250Z,101012.95
2023-02-13T10:08:44.760Z,101012.70
2023-02-13T10:11:54.386Z,101006.48
2023-02-13T10:14:59.162Z,100992.60
2023-02-13T10:17:35.843Z,100987.02
2023-02-13T10:20:16.279Z,100975.80
2023-02-13T10:26:21.747Z,100967.62
2023-02-13T10:29:24.126Z,100968.52
2023-02-13T10:32:06.761Z,100965.01
2023-02-13T10:34:41.862Z,100967.90
2023-02-13T10:37:20.681Z,100965.14
2023-02-13T10:39:52.610Z,100968.70
2023-02-13T10:42:38.762Z,100967.11
2023-02-13T10:45:53.368Z,100963.00
2023-02-13T10:48:27.807Z,100964.05
2023-02-13T10:51:38.028Z,100969.59
2023-02-13T10:55:02.746Z,100961.33
2023-02-13T10:58:10.120Z,100953.32
2023-02-13T11:00:44.529Z,100952.86
2023-02-13T11:03:24.772Z,100949.84
2023-02-13T11:05:53.780Z,100949.15
2023-02-13T11:08:35.661Z,100949.16
2023-02-13T11:11:03.975Z,100953.33
2023-02-13T11:13:36.769Z,100946.04
2023-02-13T11:16:17.740Z,100948.52
2023-02-13T11:18:49.226Z,100937.04
2023-02-13T11:21:23.824Z,100936.31
2023-02-13T11:23:54.042Z,100935.18
2023-02-13T11:26:31.794Z,100935.67
2023-02-13T11:32:29.618Z,100933.65
2023-02-13T11:35:49.585Z,100936.14
2023-02-13T11:38:19.848Z,100935.90
2023-02-13T11:41:04.923Z,100932.23
2023-02-13T11:43:53.213Z,100927.91
2023-02-13T11:46:25.644Z,100925.67
2023-02-13T11:49:02.694Z,100921.46
2023-02-13T11:52:05.343Z,100918.05
2023-02-13T11:54:43.365Z,100914.00
2023-02-13T11:57:25.921Z,100900.41
2023-02-13T12:00:32.507Z,100894.81
2023-02-13T12:03:11.259Z,100891.70
2023-02-13T12:05:55.782Z,100889.48
2023-02-13T12:11:58.869Z,100883.66
2023-02-13T12:14:37.092Z,100873.06
2023-02-13T12:21:04.222Z,100869.68
2023-02-13T12:23:50.464Z,100867.70
2023-02-13T12:26:20.708Z,100864.35
2023-02-13T12:29:23.613Z,100867.80
2023-02-13T12:32:28.544Z,100861.56
2023-02-13T12:35:31.023Z,100861.85
2023-02-13T12:38:26.844Z,100861.24
2023-02-13T12:41:43.563Z,100856.83
2023-02-13T12:44:53.416Z,100847.80
2023-02-13T12:47:31.861Z,100838.52
2023-02-13T12:50:19.533Z,100833.55
2023-02-13T12:53:07.700Z,100826.70
2023-02-13T12:55:43.003Z,100829.15
2023-02-13T12:58:25.546Z,100823.85
2023-02-13T13:01:02.266Z,100821.39
2023-02-13T13:03:45.986Z,100824.99
2023-02-13T13:06:20.434Z,100820.98
2023-02-13T13:09:30.579Z,100815.62
2023-02-13T13:12:20.844Z,100806.71
2023-02-13T13:14:59.259Z,100803.64
2023-02-13T13:17:47.898Z,100799.67
2023-02-13T13:20:27.294Z,100793.56
2023-02-13T13:23:12.883Z,100792.83
2023-02-13T13:26:07.998Z,100788.77
2023-02-13T13:28:40.433Z,100788.81
2023-02-13T13:31:07.410Z,100795.92
2023-02-13T13:36:46.531Z,100803.36
2023-02-13T13:39:26.182Z,100809.10
2023-02-13T13:42:24.310Z,100812.19
2023-02-13T13:45:18.583Z,100814.48
2023-02-13T13:47:57.169Z,100818.67
2023-02-13T13:50:26.994Z,100820.00
2023-02-13T13:53:22.750Z,100815.75
2023-02-13T13:55:49.559Z,100810.08
2023-02-13T13:58:42.026Z,100806.47
2023-02-13T14:01:21.685Z,100796.18
2023-02-13T14:03:55.572Z,100782.82
2023-02-13T14:06:28.039Z,100780.14
2023-02-13T14:09:05.606Z,100775.52
2023-02-13T14:11:37.091Z,100777.34
2023-02-13T14:14:27.878Z,100779.77
2023-02-13T14:17:04.213Z,100779.67
2023-02-13T14:19:38.008Z,100777.14
2023-02-13T14:22:28.165Z,100781.70
2023-02-13T14:24:59.246Z,100780.63
2023-02-13T14:27:38.375Z,100770.46
2023-02-13T14:30:06.806Z,100770.64
2023-02-13T14:32:36.619Z,100770.55
2023-02-13T14:35:16.986Z,100769.31
2023-02-13T14:38:09.025Z,100767.36
2023-02-13T14:40:48.537Z,100764.50
2023-02-13T14:43:30.746Z,100753.98
2023-02-13T14:46:24.056Z,100757.33
2023-02-13T14:49:02.539Z,100755.79
2023-02-13T14:51:40.806Z,100759.32
2023-02-13T14:54:28.166Z,100759.05
2023-02-13T14:57:16.516Z,100754.23
2023-02-13T15:03:19.227Z,100755.58
2023-02-13T15:05:50.587Z,100749.91
2023-02-13T15:08:19.620Z,100739.32
2023-02-13T15:10:52.740Z,100737.65
2023-02-13T15:13:29.368Z,100734.67
2023-02-13T15:16:14.865Z,100736.20
2023-02-13T15:18:46.306Z,100733.40
2023-02-13T15:21:19.816Z,100737.41
2023-02-13T15:23:50.611Z,100739.70
2023-02-13T15:26:25.814Z,100740.30
2023-02-13T15:29:04.578Z,100738.38
2023-02-13T15:31:37.612Z,100732.11
2023-02-13T15:34:25.111Z,100736.30
2023-02-13T15:36:53.621Z,100727.38
2023-02-13T15:39:27.283Z,100726.18
2023-02-13T15:41:56.358Z,100725.50
2023-02-13T15:45:08.330Z,100719.20
2023-02-13T15:47:46.946Z,100708.37
2023-02-13T15:50:41.397Z,100704.89
2023-02-13T15:53:19.466Z,100705.35
2023-02-13T15:56:04.536Z,100693.46
2023-02-13T15:58:33.852Z,100693.02
2023-02-13T16:01:05.161Z,100696.30
2023-02-13T16:03:45.661Z,100688.48
2023-02-13T16:06:15.076Z,100686.09
2023-02-13T16:08:56.036Z,100684.82
2023-02-13T16:11:23.258Z,100681.94
2023-02-13T16:14:29.514Z,100682.84
2023-02-13T16:17:05.409Z,100687.38
2023-02-13T16:19:58.675Z,100679.94
2023-02-13T16:22:35.353Z,100674.08
2023-02-13T16:25:12.348Z,100672.84
2023-02-13T16:27:50.490Z,100672.34
2023-02-13T16:30:38.396Z,100667.98
2023-02-13T16:33:19.443Z,100661.06
2023-02-13T16:35:58.524Z,100663.83
2023-02-13T16:38:52.442Z,100669.71
2023-02-13T16:41:31.660Z,100663.08
2023-02-13T16:44:05.022Z,100664.44
2023-02-13T16:46:42.229Z,100669.98
2023-02-13T16:49:15.742Z,100678.04
2023-02-13T16:52:12.262Z,100676.05
2023-02-13T16:54:47.971Z,100681.11
2023-02-13T16:57:33.283Z,100692.45
2023-02-13T17:00:25.193Z,100703.70
2023-02-13T17:03:00.731Z,100699.19
2023-02-13T17:05:29.946Z,100699.75
2023-02-13T17:07:59.822Z,100691.39
2023-02-13T17:10:35.483Z,100685.26
2023-02-13T17:13:30.898Z,100682.81
2023-02-13T17:16:22.368Z,100688.77
2023-02-13T17:18:49.984Z,100694.46
2023-02-13T17:21:19.241Z,100691.82
2023-02-13T17:23:51.600Z,100683.64
2023-02-13T17:26:19.295Z,100686.34
2023-02-13T17:35:18.592Z,100679.58
2023-02-13T17:37:46.974Z,100675.10
2023-02-13T17:40:18.529Z,100669.55
2023-02-13T17:42:47.752Z,100673.83
2023-02-13T17:45:19.389Z,100678.15
2023-02-13T17:47:54.214Z,100676.50
2023-02-13T17:50:23.169Z,100673.92
2023-02-13T17:52:51.705Z,100676.51
2023-02-13T17:55:25.288Z,100671.58
2023-02-13T17:57:57.451Z,100671.98
2023-02-13T18:00:29.336Z,100665.80
